sensor_id;sensor_type;location;lat;lon;timestamp;temperature;humidity
11505;DHT22;5809;53.262;10.408;2023-02-28T00:05:26;-1.30;99.90
11505;DHT22;5809;53.262;10.408;2023-02-28T00:10:23;-1.30;99.90
11505;DHT22;5809;53.262;10.408;2023-02-28T00:47:24;-1.50;99.90
11505;DHT22;5809;53.262;10.408;2023-02-28T01:38:59;-1.60;99.90
11505;DHT22;5809;53.262;10.408;2023-02-28T01:43:59;-1.60;99.90
11505;DHT22;5809;53.262;10.408;2023-02-28T01:49:00;-1.60;99.90
11505;DHT22;5809;53.262;10.408;2023-02-28T01:56:31;-1.70;99.90
11505;DHT22;5809;53.262;10.408;2023-02-28T02:11:22;-1.80;99.90
11505;DHT22;5809;53.262;10.408;2023-02-28T02:14:06;-1.90;99.90
11505;DHT22;5809;53.262;10.408;2023-02-28T02:19:21;-1.80;99.90
11505;DHT22;5809;53.262;10.408;2023-02-28T03:07:53;-2.20;99.90
11505;DHT22;5809;53.262;10.408;2023-02-28T03:10:34;-2.30;99.90
11505;DHT22;5809;53.262;10.408;2023-02-28T03:15:42;-2.30;99.90
11505;DHT22;5809;53.262;10.408;2023-02-28T03:18:22;-2.30;99.90
11505;DHT22;5809;53.262;10.408;2023-02-28T03:20:56;-2.40;99.90
11505;DHT22;5809;53.262;10.408;2023-02-28T03:31:03;-2.40;99.90
11505;DHT22;5809;53.262;10.408;2023-02-28T03:36:07;-2.40;99.90
11505;DHT22;5809;53.262;10.408;2023-02-28T03:41:10;-2.50;99.90
11505;DHT22;5809;53.262;10.408;2023-02-28T03:43:43;-2.50;99.90
11505;DHT22;5809;53.262;10.408;2023-02-28T04:06:08;-2.80;99.90
11505;DHT22;5809;53.262;10.408;2023-02-28T05:25:10;-3.60;99.90
11505;DHT22;5809;53.262;10.408;2023-02-28T06:24:12;-3.50;99.90
11505;DHT22;5809;53.262;10.408;2023-02-28T06:38:56;-2.40;99.90
11505;DHT22;5809;53.262;10.408;2023-02-28T06:41:24;-2.50;99.90
11505;DHT22;5809;53.262;10.408;2023-02-28T06:56:14;-0.80;99.90
11505;DHT22;5809;53.262;10.408;2023-02-28T07:01:09;0.40;99.90
11505;DHT22;5809;53.262;10.408;2023-02-28T07:08:33;1.70;99.90
11505;DHT22;5809;53.262;10.408;2023-02-28T07:23:20;3.40;99.90
11505;DHT22;5809;53.262;10.408;2023-02-28T07:33:09;4.00;99.90
11505;DHT22;5809;53.262;10.408;2023-02-28T07:35:36;4.30;99.90
11505;DHT22;5809;53.262;10.408;2023-02-28T07:38:03;4.30;99.90
11505;DHT22;5809;53.262;10.408;2023-02-28T07:40:31;4.60;99.90
11505;DHT22;5809;53.262;10.408;2023-02-28T07:42:59;4.80;99.90
11505;DHT22;5809;53.262;10.408;2023-02-28T07:47:54;5.10;99.90
11505;DHT22;5809;53.262;10.408;2023-02-28T07:50:21;5.70;99.90
11505;DHT22;5809;53.262;10.408;2023-02-28T07:55:16;6.00;99.90
11505;DHT22;5809;53.262;10.408;2023-02-28T07:57:44;6.10;99.90
11505;DHT22;5809;53.262;10.408;2023-02-28T08:00:12;6.40;99.90
11505;DHT22;5809;53.262;10.408;2023-02-28T08:02:39;6.40;99.90
11505;DHT22;5809;53.262;10.408;2023-02-28T08:05:07;6.70;99.90
11505;DHT22;5809;53.262;10.408;2023-02-28T08:07:34;6.20;99.90
11505;DHT22;5809;53.262;10.408;2023-02-28T08:10:01;5.80;99.90
11505;DHT22;5809;53.262;10.408;2023-02-28T08:12:31;6.30;99.90
11505;DHT22;5809;53.262;10.408;2023-02-28T08:14:59;6.40;99.90
11505;DHT22;5809;53.262;10.408;2023-02-28T08:19:53;7.70;99.90
11505;DHT22;5809;53.262;10.408;2023-02-28T08:29:42;8.00;99.90
11505;DHT22;5809;53.262;10.408;2023-02-28T08:32:11;8.10;99.90
11505;DHT22;5809;53.262;10.408;2023-02-28T08:34:39;8.20;99.90
11505;DHT22;5809;53.262;10.408;2023-02-28T08:39:34;9.20;99.90
11505;DHT22;5809;53.262;10.408;2023-02-28T08:44:29;10.80;99.90
11505;DHT22;5809;53.262;10.408;2023-02-28T08:46:56;11.10;99.90
11505;DHT22;5809;53.262;10.408;2023-02-28T08:49:24;11.40;99.90
11505;DHT22;5809;53.262;10.408;2023-02-28T08:51:51;11.80;99.90
11505;DHT22;5809;53.262;10.408;2023-02-28T08:54:18;11.90;99.90
11505;DHT22;5809;53.262;10.408;2023-02-28T08:56:45;11.60;99.90
11505;DHT22;5809;53.262;10.408;2023-02-28T08:59:12;11.50;99.90
11505;DHT22;5809;53.262;10.408;2023-02-28T09:01:39;11.60;99.90
11505;DHT22;5809;53.262;10.408;2023-02-28T09:06:35;12.60;99.90
11505;DHT22;5809;53.262;10.408;2023-02-28T09:09:02;13.00;99.90
11505;DHT22;5809;53.262;10.408;2023-02-28T09:11:33;12.90;99.90
11505;DHT22;5809;53.262;10.408;2023-02-28T09:16:29;13.60;99.90
11505;DHT22;5809;53.262;10.408;2023-02-28T09:18:56;13.70;99.90
11505;DHT22;5809;53.262;10.408;2023-02-28T09:21:23;13.90;99.90
11505;DHT22;5809;53.262;10.408;2023-02-28T09:23:51;14.20;99.90
11505;DHT22;5809;53.262;10.408;2023-02-28T09:26:21;14.10;99.90
11505;DHT22;5809;53.262;10.408;2023-02-28T09:28:49;13.80;99.90
11505;DHT22;5809;53.262;10.408;2023-02-28T09:31:17;14.00;99.90
11505;DHT22;5809;53.262;10.408;2023-02-28T09:36:13;14.00;99.90
11505;DHT22;5809;53.262;10.408;2023-02-28T09:41:13;14.60;99.90
11505;DHT22;5809;53.262;10.408;2023-02-28T09:43:45;14.50;99.90
11505;DHT22;5809;53.262;10.408;2023-02-28T09:46:27;14.50;99.90
11505;DHT22;5809;53.262;10.408;2023-02-28T09:48:56;14.50;99.90
11505;DHT22;5809;53.262;10.408;2023-02-28T09:51:33;14.90;99.90
11505;DHT22;5809;53.262;10.408;2023-02-28T09:54:03;17.50;99.90
11505;DHT22;5809;53.262;10.408;2023-02-28T09:56:39;15.10;99.90
11505;DHT22;5809;53.262;10.408;2023-02-28T09:59:14;15.10;99.90
11505;DHT22;5809;53.262;10.408;2023-02-28T10:01:51;14.80;99.90
11505;DHT22;5809;53.262;10.408;2023-02-28T10:04:40;15.10;99.90
11505;DHT22;5809;53.262;10.408;2023-02-28T10:07:17;15.40;99.90
11505;DHT22;5809;53.262;10.408;2023-02-28T10:09:47;16.10;99.90
11505;DHT22;5809;53.262;10.408;2023-02-28T10:14:47;15.20;99.90
11505;DHT22;5809;53.262;10.408;2023-02-28T10:17:17;15.40;99.90
11505;DHT22;5809;53.262;10.408;2023-02-28T10:19:55;16.10;99.90
11505;DHT22;5809;53.262;10.408;2023-02-28T10:22:26;15.90;99.90
11505;DHT22;5809;53.262;10.408;2023-02-28T10:24:57;15.90;99.90
11505;DHT22;5809;53.262;10.408;2023-02-28T10:27:31;16.00;99.90
11505;DHT22;5809;53.262;10.408;2023-02-28T10:30:00;16.00;99.90
11505;DHT22;5809;53.262;10.408;2023-02-28T10:32:31;15.00;99.90
11505;DHT22;5809;53.262;10.408;2023-02-28T10:35:00;13.40;99.90
11505;DHT22;5809;53.262;10.408;2023-02-28T10:37:28;12.10;99.90
11505;DHT22;5809;53.262;10.408;2023-02-28T10:39:55;10.90;99.90
11505;DHT22;5809;53.262;10.408;2023-02-28T10:42:24;10.00;99.90
11505;DHT22;5809;53.262;10.408;2023-02-28T10:45:12;9.30;99.90
11505;DHT22;5809;53.262;10.408;2023-02-28T10:47:49;9.10;99.90
11505;DHT22;5809;53.262;10.408;2023-02-28T10:50:32;9.10;99.90
11505;DHT22;5809;53.262;10.408;2023-02-28T11:03:02;11.80;99.90
11505;DHT22;5809;53.262;10.408;2023-02-28T11:05:47;11.90;99.90
11505;DHT22;5809;53.262;10.408;2023-02-28T11:08:16;12.90;99.90
11505;DHT22;5809;53.262;10.408;2023-02-28T11:10:46;13.80;99.90
11505;DHT22;5809;53.262;10.408;2023-02-28T11:13:17;14.50;99.90
11505;DHT22;5809;53.262;10.408;2023-02-28T11:15:52;15.80;99.90
11505;DHT22;5809;53.262;10.408;2023-02-28T11:18:24;16.10;99.90
11505;DHT22;5809;53.262;10.408;2023-02-28T11:20:56;16.50;99.90
11505;DHT22;5809;53.262;10.408;2023-02-28T11:23:25;15.00;99.90
11505;DHT22;5809;53.262;10.408;2023-02-28T11:25:55;15.60;99.90
11505;DHT22;5809;53.262;10.408;2023-02-28T11:28:27;15.90;99.90
11505;DHT22;5809;53.262;10.408;2023-02-28T11:31:05;14.60;99.90
11505;DHT22;5809;53.262;10.408;2023-02-28T11:33:41;14.40;99.90
11505;DHT22;5809;53.262;10.408;2023-02-28T11:36:12;11.40;99.90
11505;DHT22;5809;53.262;10.408;2023-02-28T11:44:19;14.20;99.90
11505;DHT22;5809;53.262;10.408;2023-02-28T11:46:51;13.20;99.90
11505;DHT22;5809;53.262;10.408;2023-02-28T11:49:29;14.70;99.90
11505;DHT22;5809;53.262;10.408;2023-02-28T11:52:00;16.30;99.90
11505;DHT22;5809;53.262;10.408;2023-02-28T11:57:52;14.70;99.90
11505;DHT22;5809;53.262;10.408;2023-02-28T12:00:38;16.10;99.90
11505;DHT22;5809;53.262;10.408;2023-02-28T12:03:21;17.10;99.90
11505;DHT22;5809;53.262;10.408;2023-02-28T12:06:00;17.10;99.90
11505;DHT22;5809;53.262;10.408;2023-02-28T12:08:55;20.70;99.90
11505;DHT22;5809;53.262;10.408;2023-02-28T12:11:34;19.20;99.90
11505;DHT22;5809;53.262;10.408;2023-02-28T12:14:19;19.60;99.90
11505;DHT22;5809;53.262;10.408;2023-02-28T12:16:58;19.30;99.90
11505;DHT22;5809;53.262;10.408;2023-02-28T12:19:36;19.10;99.90
11505;DHT22;5809;53.262;10.408;2023-02-28T12:22:17;19.50;99.90
11505;DHT22;5809;53.262;10.408;2023-02-28T12:25:00;19.50;99.90
11505;DHT22;5809;53.262;10.408;2023-02-28T12:27:30;17.00;99.90
11505;DHT22;5809;53.262;10.408;2023-02-28T12:30:00;13.60;99.90
11505;DHT22;5809;53.262;10.408;2023-02-28T12:32:32;16.60;99.90
11505;DHT22;5809;53.262;10.408;2023-02-28T12:35:06;17.40;99.90
11505;DHT22;5809;53.262;10.408;2023-02-28T12:37:41;16.70;99.90
11505;DHT22;5809;53.262;10.408;2023-02-28T12:40:13;17.80;99.90
11505;DHT22;5809;53.262;10.408;2023-02-28T12:42:43;16.60;99.90
11505;DHT22;5809;53.262;10.408;2023-02-28T12:45:18;16.90;99.90
11505;DHT22;5809;53.262;10.408;2023-02-28T12:47:48;18.20;99.90
11505;DHT22;5809;53.262;10.408;2023-02-28T12:50:18;18.60;99.90
11505;DHT22;5809;53.262;10.408;2023-02-28T12:52:53;19.70;99.90
11505;DHT22;5809;53.262;10.408;2023-02-28T12:55:29;19.60;99.90
11505;DHT22;5809;53.262;10.408;2023-02-28T12:58:08;19.90;99.90
11505;DHT22;5809;53.262;10.408;2023-02-28T13:00:46;19.60;99.90
11505;DHT22;5809;53.262;10.408;2023-02-28T13:03:37;20.20;99.90
11505;DHT22;5809;53.262;10.408;2023-02-28T13:06:23;20.40;99.90
11505;DHT22;5809;53.262;10.408;2023-02-28T13:09:04;20.40;99.90
11505;DHT22;5809;53.262;10.408;2023-02-28T13:11:33;20.20;99.90
11505;DHT22;5809;53.262;10.408;2023-02-28T13:14:06;20.70;99.90
11505;DHT22;5809;53.262;10.408;2023-02-28T13:16:55;20.50;99.90
11505;DHT22;5809;53.262;10.408;2023-02-28T13:19:24;20.50;99.90
11505;DHT22;5809;53.262;10.408;2023-02-28T13:21:53;20.60;99.90
11505;DHT22;5809;53.262;10.408;2023-02-28T13:24:40;20.60;99.90
11505;DHT22;5809;53.262;10.408;2023-02-28T13:32:33;20.10;99.90
11505;DHT22;5809;53.262;10.408;2023-02-28T13:44:06;17.90;99.90
11505;DHT22;5809;53.262;10.408;2023-02-28T13:46:36;18.50;99.90
11505;DHT22;5809;53.262;10.408;2023-02-28T13:49:19;17.70;99.90
11505;DHT22;5809;53.262;10.408;2023-02-28T13:51:48;17.80;99.90
11505;DHT22;5809;53.262;10.408;2023-02-28T13:54:34;19.00;99.90
11505;DHT22;5809;53.262;10.408;2023-02-28T13:57:14;18.80;99.90
11505;DHT22;5809;53.262;10.408;2023-02-28T13:59:53;19.80;99.90
11505;DHT22;5809;53.262;10.408;2023-02-28T14:02:38;19.60;99.90
11505;DHT22;5809;53.262;10.408;2023-02-28T14:05:15;20.30;99.90
11505;DHT22;5809;53.262;10.408;2023-02-28T14:07:46;18.20;99.90
11505;DHT22;5809;53.262;10.408;2023-02-28T14:10:32;18.30;99.90
11505;DHT22;5809;53.262;10.408;2023-02-28T14:13:04;16.50;99.90
11505;DHT22;5809;53.262;10.408;2023-02-28T14:15:48;16.70;99.90
11505;DHT22;5809;53.262;10.408;2023-02-28T14:18:25;15.80;99.90
11505;DHT22;5809;53.262;10.408;2023-02-28T14:20:58;16.30;99.90
11505;DHT22;5809;53.262;10.408;2023-02-28T14:23:44;16.60;99.90
11505;DHT22;5809;53.262;10.408;2023-02-28T14:26:19;17.80;99.90
11505;DHT22;5809;53.262;10.408;2023-02-28T14:29:05;18.40;99.90
11505;DHT22;5809;53.262;10.408;2023-02-28T14:31:40;19.30;99.90
11505;DHT22;5809;53.262;10.408;2023-02-28T14:34:23;18.40;99.90
11505;DHT22;5809;53.262;10.408;2023-02-28T14:36:53;17.90;99.90
11505;DHT22;5809;53.262;10.408;2023-02-28T14:39:22;18.90;99.90
11505;DHT22;5809;53.262;10.408;2023-02-28T14:41:50;19.20;99.90
11505;DHT22;5809;53.262;10.408;2023-02-28T14:44:19;19.00;99.90
11505;DHT22;5809;53.262;10.408;2023-02-28T14:46:49;19.30;99.90
11505;DHT22;5809;53.262;10.408;2023-02-28T14:49:19;19.60;99.90
11505;DHT22;5809;53.262;10.408;2023-02-28T14:51:49;19.60;99.90
11505;DHT22;5809;53.262;10.408;2023-02-28T14:54:18;20.10;99.90
11505;DHT22;5809;53.262;10.408;2023-02-28T14:56:50;17.60;99.90
11505;DHT22;5809;53.262;10.408;2023-02-28T14:59:25;15.20;99.90
11505;DHT22;5809;53.262;10.408;2023-02-28T15:02:17;16.00;99.90
11505;DHT22;5809;53.262;10.408;2023-02-28T15:04:53;16.80;99.90
11505;DHT22;5809;53.262;10.408;2023-02-28T15:10:07;17.70;99.90
11505;DHT22;5809;53.262;10.408;2023-02-28T15:12:35;17.80;99.90
11505;DHT22;5809;53.262;10.408;2023-02-28T15:15:03;18.00;99.90
11505;DHT22;5809;53.262;10.408;2023-02-28T15:17:31;17.90;99.90
11505;DHT22;5809;53.262;10.408;2023-02-28T15:19:58;17.80;99.90
11505;DHT22;5809;53.262;10.408;2023-02-28T15:22:29;18.00;99.90
11505;DHT22;5809;53.262;10.408;2023-02-28T15:24:58;17.90;99.90
11505;DHT22;5809;53.262;10.408;2023-02-28T15:27:27;17.20;99.90
11505;DHT22;5809;53.262;10.408;2023-02-28T15:29:59;17.00;99.90
11505;DHT22;5809;53.262;10.408;2023-02-28T15:34:57;17.10;99.90
11505;DHT22;5809;53.262;10.408;2023-02-28T15:39:55;16.40;99.90
11505;DHT22;5809;53.262;10.408;2023-02-28T15:49:48;15.80;99.90
11505;DHT22;5809;53.262;10.408;2023-02-28T15:52:19;15.60;99.90
11505;DHT22;5809;53.262;10.408;2023-02-28T15:54:48;15.70;99.90
11505;DHT22;5809;53.262;10.408;2023-02-28T15:59:49;14.20;99.90
11505;DHT22;5809;53.262;10.408;2023-02-28T16:02:19;14.20;99.90
11505;DHT22;5809;53.262;10.408;2023-02-28T16:05:24;11.90;99.90
11505;DHT22;5809;53.262;10.408;2023-02-28T16:15:23;9.00;99.90
11505;DHT22;5809;53.262;10.408;2023-02-28T16:20:21;8.10;99.90
11505;DHT22;5809;53.262;10.408;2023-02-28T16:25:19;7.60;99.90
11505;DHT22;5809;53.262;10.408;2023-02-28T16:42:38;6.80;99.90
11505;DHT22;5809;53.262;10.408;2023-02-28T16:52:28;6.40;99.90
11505;DHT22;5809;53.262;10.408;2023-02-28T17:09:42;5.90;99.90
11505;DHT22;5809;53.262;10.408;2023-02-28T17:36:48;4.90;99.90
11505;DHT22;5809;53.262;10.408;2023-02-28T18:16:19;3.90;99.90
11505;DHT22;5809;53.262;10.408;2023-02-28T18:23:43;3.60;99.90
11505;DHT22;5809;53.262;10.408;2023-02-28T19:10:32;2.60;99.90
11505;DHT22;5809;53.262;10.408;2023-02-28T19:32:38;1.80;99.90
11505;DHT22;5809;53.262;10.408;2023-02-28T19:40:05;1.70;99.90
11505;DHT22;5809;53.262;10.408;2023-02-28T20:02:14;1.10;99.90
11505;DHT22;5809;53.262;10.408;2023-02-28T20:07:08;1.00;99.90
11505;DHT22;5809;53.262;10.408;2023-02-28T20:19:26;0.50;99.90
11505;DHT22;5809;53.262;10.408;2023-02-28T20:24:20;0.50;99.90
11505;DHT22;5809;53.262;10.408;2023-02-28T20:26:51;0.40;99.90
11505;DHT22;5809;53.262;10.408;2023-02-28T20:31:46;0.20;99.90
11505;DHT22;5809;53.262;10.408;2023-02-28T20:34:13;0.10;99.90
11505;DHT22;5809;53.262;10.408;2023-02-28T20:41:34;-0.10;99.90
11505;DHT22;5809;53.262;10.408;2023-02-28T20:44:03;-0.10;99.90
11505;DHT22;5809;53.262;10.408;2023-02-28T20:46:30;-0.20;99.90
11505;DHT22;5809;53.262;10.408;2023-02-28T20:48:59;-0.20;99.90
11505;DHT22;5809;53.262;10.408;2023-02-28T20:53:53;-0.20;99.90
11505;DHT22;5809;53.262;10.408;2023-02-28T20:56:21;-0.20;99.90
11505;DHT22;5809;53.262;10.408;2023-02-28T20:58:51;-0.20;99.90
11505;DHT22;5809;53.262;10.408;2023-02-28T21:01:23;0.40;99.90
11505;DHT22;5809;53.262;10.408;2023-02-28T21:03:52;-0.30;99.90
11505;DHT22;5809;53.262;10.408;2023-02-28T21:06:22;-0.30;99.90
11505;DHT22;5809;53.262;10.408;2023-02-28T21:08:50;-0.30;99.90
11505;DHT22;5809;53.262;10.408;2023-02-28T21:11:18;-0.30;99.90
11505;DHT22;5809;53.262;10.408;2023-02-28T21:13:46;-0.40;99.90
11505;DHT22;5809;53.262;10.408;2023-02-28T21:16:15;-0.40;99.90
11505;DHT22;5809;53.262;10.408;2023-02-28T21:18:44;-0.40;99.90
11505;DHT22;5809;53.262;10.408;2023-02-28T21:21:13;-0.40;99.90
11505;DHT22;5809;53.262;10.408;2023-02-28T21:23:40;-0.50;99.90
11505;DHT22;5809;53.262;10.408;2023-02-28T21:26:10;-0.50;99.90
11505;DHT22;5809;53.262;10.408;2023-02-28T21:28:38;-0.60;99.90
11505;DHT22;5809;53.262;10.408;2023-02-28T21:31:09;-0.60;99.90
11505;DHT22;5809;53.262;10.408;2023-02-28T21:36:08;-0.70;99.90
11505;DHT22;5809;53.262;10.408;2023-02-28T21:38:36;-0.60;99.90
11505;DHT22;5809;53.262;10.408;2023-02-28T21:41:04;-0.60;99.90
11505;DHT22;5809;53.262;10.408;2023-02-28T21:46:02;-0.70;99.90
11505;DHT22;5809;53.262;10.408;2023-02-28T21:48:30;-0.70;99.90
11505;DHT22;5809;53.262;10.408;2023-02-28T21:50:58;-0.80;99.90
11505;DHT22;5809;53.262;10.408;2023-02-28T21:53:28;-0.90;99.90
11505;DHT22;5809;53.262;10.408;2023-02-28T21:55:59;-0.80;99.90
11505;DHT22;5809;53.262;10.408;2023-02-28T21:58:26;-0.90;99.90
11505;DHT22;5809;53.262;10.408;2023-02-28T22:00:53;-0.90;99.90
11505;DHT22;5809;53.262;10.408;2023-02-28T22:05:47;-1.00;99.90
11505;DHT22;5809;53.262;10.408;2023-02-28T22:10:42;-1.10;99.90
11505;DHT22;5809;53.262;10.408;2023-02-28T22:15:37;-1.10;99.90
11505;DHT22;5809;53.262;10.408;2023-02-28T22:18:05;-1.10;99.90
11505;DHT22;5809;53.262;10.408;2023-02-28T22:30:22;-1.20;99.90
11505;DHT22;5809;53.262;10.408;2023-02-28T22:32:49;-1.20;99.90
11505;DHT22;5809;53.262;10.408;2023-02-28T22:37:46;-1.30;99.90
11505;DHT22;5809;53.262;10.408;2023-02-28T22:40:13;-1.30;99.90
11505;DHT22;5809;53.262;10.408;2023-02-28T22:45:10;-1.40;99.90
11505;DHT22;5809;53.262;10.408;2023-02-28T22:50:05;-1.50;99.90
11505;DHT22;5809;53.262;10.408;2023-02-28T22:55:00;-1.50;99.90
11505;DHT22;5809;53.262;10.408;2023-02-28T22:57:29;-1.50;99.90
11505;DHT22;5809;53.262;10.408;2023-02-28T22:59:56;-1.50;99.90
11505;DHT22;5809;53.262;10.408;2023-02-28T23:02:24;-1.60;99.90
11505;DHT22;5809;53.262;10.408;2023-02-28T23:04:53;-1.50;99.90
11505;DHT22;5809;53.262;10.408;2023-02-28T23:14:42;-1.50;99.90
11505;DHT22;5809;53.262;10.408;2023-02-28T23:19:38;-1.60;99.90
11505;DHT22;5809;53.262;10.408;2023-02-28T23:22:05;-1.50;99.90
11505;DHT22;5809;53.262;10.408;2023-02-28T23:27:03;-1.60;99.90
11505;DHT22;5809;53.262;10.408;2023-02-28T23:29:31;-1.60;99.90
11505;DHT22;5809;53.262;10.408;2023-02-28T23:36:58;-1.70;99.90
11505;DHT22;5809;53.262;10.408;2023-02-28T23:44:21;-1.80;99.90
11505;DHT22;5809;53.262;10.408;2023-02-28T23:46:50;-1.80;99.90
11505;DHT22;5809;53.262;10.408;2023-02-28T23:49:18;-1.80;99.90
11505;DHT22;5809;53.262;10.408;2023-02-28T23:51:46;-1.80;99.90
11505;DHT22;5809;53.262;10.408;2023-02-28T23:54:15;-1.80;99.90
11505;DHT22;5809;53.262;10.408;2023-02-28T23:59:10;-1.80;99.90
